Time;durP1;ratioP1;P1;durP2;ratioP2;P2;SDS_P1;SDS_P2;PMS_P1;PMS_P2;Temp;Humidity;BMP_temperature;BMP_pressure;BME280_temperature;BME280_humidity;BME280_pressure;Samples;Min_cycle;Max_cycle;Signal;HPM_P1;HPM_P2
2024/03/02 00:00:13;;;;;;;25.50;13.93;;;;;;;8.37;65.85;94408.06;5005631;28;20443;-80
2024/03/02 00:02:44;;;;;;;27.92;15.40;;;;;;;8.40;66.09;94396.25;5005844;28;20392;-80
2024/03/02 00:05:15;;;;;;;28.55;14.45;;;;;;;8.51;65.76;94396.69;5005997;28;20040;-80
2024/03/02 00:07:41;;;;;;;28.00;15.73;;;;;;;8.45;65.57;94395.72;5005231;28;20026;-80
2024/03/02 00:10:12;;;;;;;27.17;14.18;;;;;;;8.52;65.48;94398.22;5006163;28;20331;-80
2024/03/02 00:12:41;;;;;;;24.90;15.20;;;;;;;8.51;65.54;94402.19;5005043;28;20074;-80
2024/03/02 00:15:23;;;;;;;22.92;14.30;;;;;;;8.55;64.81;94396.59;5006072;28;20125;-80
2024/03/02 00:17:53;;;;;;;25.80;13.93;;;;;;;8.47;65.40;94391.31;5005838;28;20018;-79
2024/03/02 00:20:21;;;;;;;27.73;15.13;;;;;;;8.53;65.26;94410.72;5005617;28;20025;-80
2024/03/02 00:22:46;;;;;;;23.33;14.10;;;;;;;8.47;65.06;94402.28;5007094;28;20559;-79
2024/03/02 00:25:12;;;;;;;21.75;13.00;;;;;;;8.52;64.87;94404.47;5009029;28;20109;-79
2024/03/02 00:27:37;;;;;;;18.45;11.05;;;;;;;8.54;64.02;94406.78;5009376;28;20014;-80
2024/03/02 00:30:32;;;;;;;20.98;11.70;;;;;;;8.53;63.85;94388.81;5009220;28;20040;-79
2024/03/02 00:32:59;;;;;;;18.70;11.80;;;;;;;8.54;63.70;94381.34;5007567;28;20029;-79
2024/03/02 00:35:24;;;;;;;19.88;11.63;;;;;;;8.53;63.19;94386.06;5009347;28;20099;-79
2024/03/02 00:37:49;;;;;;;21.20;12.48;;;;;;;8.47;63.39;94374.88;5008675;28;20029;-81
2024/03/02 00:40:16;;;;;;;18.90;10.27;;;;;;;8.47;63.34;94361.19;5009666;28;20477;-80
2024/03/02 00:42:41;;;;;;;16.58;10.32;;;;;;;8.56;63.38;94373.47;5007143;28;20026;-80
2024/03/02 00:45:07;;;;;;;18.35;10.18;;;;;;;8.54;63.15;94373.91;5009416;28;20483;-80
2024/03/02 00:47:38;;;;;;;23.60;12.10;;;;;;;8.58;63.24;94380.03;5009089;28;20033;-78
2024/03/02 00:50:04;;;;;;;20.38;12.05;;;;;;;8.61;63.28;94383.91;5007633;28;20038;-80
2024/03/02 00:52:29;;;;;;;19.77;11.75;;;;;;;8.61;63.28;94381.16;5007707;28;20026;-80
2024/03/02 00:54:57;;;;;;;20.35;11.65;;;;;;;8.61;63.23;94375.69;5008375;28;20088;-80
2024/03/02 00:57:25;;;;;;;18.88;12.40;;;;;;;8.69;63.16;94385.22;5009051;28;20030;-80
2024/03/02 00:59:51;;;;;;;22.27;12.00;;;;;;;8.68;63.23;94381.69;5006961;28;20038;-78
2024/03/02 01:02:16;;;;;;;20.08;12.48;;;;;;;8.69;63.17;94383.22;5008979;28;20022;-79
2024/03/02 01:04:42;;;;;;;22.33;13.23;;;;;;;8.73;63.38;94388.63;5007911;28;20028;-80
2024/03/02 01:07:07;;;;;;;22.17;13.30;;;;;;;8.77;63.44;94389.25;5008820;28;20022;-79
2024/03/02 01:09:32;;;;;;;25.50;13.45;;;;;;;8.83;63.71;94392.22;5008777;28;20032;-78
2024/03/02 01:11:58;;;;;;;26.08;14.57;;;;;;;8.84;64.01;94391.03;5007832;28;20050;-80
2024/03/02 01:14:23;;;;;;;25.35;15.18;;;;;;;8.91;63.95;94388.06;5008702;28;20398;-78
2024/03/02 01:16:49;;;;;;;25.40;15.30;;;;;;;8.96;64.10;94382.03;5008007;28;20034;-79
2024/03/02 01:19:15;;;;;;;26.55;15.55;;;;;;;8.97;64.52;94383.56;5009087;28;20034;-80
2024/03/02 01:21:40;;;;;;;26.33;15.30;;;;;;;8.96;64.49;94368.34;5007904;28;20118;-79
2024/03/02 01:24:06;;;;;;;24.65;14.30;;;;;;;9.01;64.55;94367.78;5008797;28;20116;-79
2024/03/02 01:26:31;;;;;;;27.90;15.20;;;;;;;9.07;64.20;94365.25;5008308;28;20118;-80
2024/03/02 01:28:56;;;;;;;27.23;15.68;;;;;;;9.05;64.25;94371.91;5008480;28;20060;-79
2024/03/02 01:31:22;;;;;;;27.35;15.93;;;;;;;9.06;64.31;94372.72;5008420;28;20665;-80
2024/03/02 01:33:47;;;;;;;26.75;14.82;;;;;;;9.08;64.30;94364.03;5006747;28;20034;-79
2024/03/02 01:36:13;;;;;;;26.02;15.32;;;;;;;9.07;64.57;94354.28;5008199;28;20029;-79
2024/03/02 01:38:38;;;;;;;28.15;15.75;;;;;;;9.07;64.42;94355.06;5007496;28;20053;-79
2024/03/02 01:41:04;;;;;;;23.50;14.52;;;;;;;9.08;64.32;94344.84;5008170;28;20030;-80
2024/03/02 01:43:29;;;;;;;25.17;14.73;;;;;;;9.14;64.56;94354.81;5006291;28;20099;-79
2024/03/02 01:45:56;;;;;;;26.95;16.10;;;;;;;9.13;64.62;94355.25;5006790;28;20080;-80
2024/03/02 01:48:21;;;;;;;25.48;16.00;;;;;;;9.13;64.46;94358.78;5006737;28;20030;-79
2024/03/02 01:50:47;;;;;;;24.52;14.50;;;;;;;9.19;64.57;94361.72;5007672;28;20026;-79
2024/03/02 01:53:12;;;;;;;26.92;15.80;;;;;;;9.20;64.51;94355.78;5008200;28;20500;-79
2024/03/02 01:55:37;;;;;;;27.48;15.65;;;;;;;9.20;64.68;94353.03;5007321;28;20022;-80
2024/03/02 01:58:03;;;;;;;26.13;15.57;;;;;;;9.20;64.79;94355.78;5008115;28;20101;-79
2024/03/02 02:00:30;;;;;;;27.65;14.50;;;;;;;9.18;64.89;94346.47;5007091;28;20030;-79
2024/03/02 02:02:55;;;;;;;28.90;15.23;;;;;;;9.23;64.84;94348.63;5007544;28;20026;-79
2024/03/02 02:05:21;;;;;;;29.48;15.77;;;;;;;9.19;65.02;94351.53;5007428;28;20026;-80
2024/03/02 02:07:46;;;;;;;28.42;15.98;;;;;;;9.15;65.29;94355.56;5007219;28;20464;-79
2024/03/02 02:10:11;;;;;;;26.95;15.38;;;;;;;9.12;65.38;94357.25;5007540;28;20057;-80
2024/03/02 02:12:37;;;;;;;26.73;15.48;;;;;;;9.14;65.37;94343.09;5007024;28;20041;-79
2024/03/02 02:15:22;;;;;;;27.13;15.57;;;;;;;9.17;64.50;94348.44;5007329;28;20030;-80
2024/03/02 02:17:47;;;;;;;26.88;15.25;;;;;;;9.06;64.94;94342.56;5006755;28;20022;-80
2024/03/02 02:20:13;;;;;;;28.65;14.57;;;;;;;9.06;65.17;94359.00;5007963;28;20025;-80
2024/03/02 02:22:39;;;;;;;25.17;14.48;;;;;;;9.09;64.86;94349.88;5006907;28;20117;-79
2024/03/02 02:25:04;;;;;;;27.30;15.60;;;;;;;9.09;64.99;94354.59;5007154;28;20104;-79
2024/03/02 02:27:30;;;;;;;31.65;16.88;;;;;;;9.03;65.04;94355.16;5007385;28;20065;-79
2024/03/02 02:29:59;;;;;;;27.27;17.00;;;;;;;8.97;65.39;94353.41;5006440;28;20029;-79
2024/03/02 02:32:25;;;;;;;25.25;15.15;;;;;;;8.91;65.44;94349.69;5007353;28;20030;-80
2024/03/02 02:34:53;;;;;;;28.08;16.92;;;;;;;8.86;65.32;94339.28;5006599;28;20076;-79
2024/03/02 02:37:18;;;;;;;27.25;16.25;;;;;;;8.96;65.50;94352.66;5007305;28;20030;-80
2024/03/02 02:39:44;;;;;;;29.08;16.38;;;;;;;8.92;65.90;94351.97;5006950;28;20025;-79
2024/03/02 02:42:09;;;;;;;31.73;15.82;;;;;;;8.83;66.10;94332.72;5005472;28;20108;-79
2024/03/02 02:44:34;;;;;;;32.50;17.15;;;;;;;8.98;65.99;94360.44;5006722;28;20100;-78
2024/03/02 02:47:00;;;;;;;27.70;16.52;;;;;;;8.94;65.86;94346.81;5007507;28;21020;-78
2024/03/02 02:49:25;;;;;;;28.83;17.02;;;;;;;9.04;66.05;94350.44;5012325;28;20040;-80
2024/03/02 02:51:50;;;;;;;30.98;16.75;;;;;;;9.05;65.89;94357.44;5009120;28;20022;-80
2024/03/02 02:54:16;;;;;;;26.95;16.60;;;;;;;9.03;66.31;94354.38;5007424;28;20381;-80
2024/03/02 02:56:41;;;;;;;26.95;15.85;;;;;;;9.10;66.08;94358.88;5006454;28;20026;-80
2024/03/02 02:59:07;;;;;;;27.10;16.40;;;;;;;9.08;65.87;94362.06;5007133;28;20117;-80
2024/03/02 03:01:32;;;;;;;28.10;15.60;;;;;;;9.07;65.63;94359.78;5006391;28;20416;-79
2024/03/02 03:03:58;;;;;;;30.52;17.08;;;;;;;9.08;65.33;94361.31;5006261;28;20112;-80
2024/03/02 03:06:23;;;;;;;26.88;14.60;;;;;;;9.13;65.61;94355.25;5005812;28;20083;-79
2024/03/02 03:08:48;;;;;;;26.27;15.27;;;;;;;9.19;65.43;94361.72;5006124;28;20054;-80
2024/03/02 03:11:14;;;;;;;28.23;15.10;;;;;;;9.21;65.08;94362.03;5007307;28;20046;-80
2024/03/02 03:13:39;;;;;;;26.83;15.75;;;;;;;9.15;64.98;94355.56;5006516;28;20026;-78
2024/03/02 03:16:05;;;;;;;25.92;15.30;;;;;;;9.18;64.92;94360.19;5006445;28;20038;-79
2024/03/02 03:18:30;;;;;;;28.38;15.95;;;;;;;9.18;65.11;94358.22;5006280;28;20040;-80
2024/03/02 03:20:56;;;;;;;27.95;14.80;;;;;;;9.17;65.05;94353.91;5006453;28;20028;-79
2024/03/02 03:23:21;;;;;;;28.15;16.20;;;;;;;9.18;65.34;94357.44;5006132;28;20029;-79
2024/03/02 03:25:46;;;;;;;26.55;15.73;;;;;;;9.14;65.35;94354.81;5005897;28;20157;-78
2024/03/02 03:28:12;;;;;;;27.85;16.30;;;;;;;9.19;65.12;94359.75;5006383;28;20030;-79
2024/03/02 03:30:38;;;;;;;28.20;15.80;;;;;;;9.23;64.99;94354.13;5006078;28;20113;-80
2024/03/02 03:33:05;;;;;;;26.73;14.70;;;;;;;9.25;64.85;94352.50;5006374;28;20052;-79
2024/03/02 03:35:31;;;;;;;25.80;15.13;;;;;;;9.23;64.87;94359.59;5006119;28;20030;-80
2024/03/02 03:37:56;;;;;;;26.70;15.63;;;;;;;9.20;65.15;94355.78;5006518;28;20026;-79
2024/03/02 03:40:22;;;;;;;32.53;18.17;;;;;;;9.10;65.12;94345.16;5005746;28;20030;-78
2024/03/02 03:42:48;;;;;;;30.88;16.83;;;;;;;9.20;65.50;94364.00;5005703;28;20068;-80
2024/03/02 03:45:14;;;;;;;32.13;17.25;;;;;;;9.23;65.59;94354.91;5006279;28;20026;-79
2024/03/02 03:47:39;;;;;;;28.83;16.17;;;;;;;9.21;65.73;94353.81;5005679;28;20033;-79
2024/03/02 03:50:07;;;;;;;28.90;16.98;;;;;;;9.21;65.53;94360.06;5006038;28;20050;-80
2024/03/02 03:52:32;;;;;;;28.95;15.82;;;;;;;9.21;65.38;94362.81;5005403;28;20515;-80
2024/03/02 03:54:58;;;;;;;25.30;15.57;;;;;;;9.21;65.28;94351.06;5006059;28;20101;-79
2024/03/02 03:57:23;;;;;;;27.40;15.02;;;;;;;9.18;65.15;94358.22;5006625;28;20061;-79
2024/03/02 03:59:48;;;;;;;26.65;15.65;;;;;;;9.17;65.44;94350.41;5009477;28;20357;-79
2024/03/02 04:02:14;;;;;;;32.10;16.98;;;;;;;9.18;65.60;94354.72;5009760;28;20034;-79
2024/03/02 04:04:40;;;;;;;28.48;15.30;;;;;;;9.16;65.54;94357.88;5009507;28;20445;-80
2024/03/02 04:07:05;;;;;;;28.13;15.68;;;;;;;9.18;65.58;94360.97;5009880;28;20087;-79
2024/03/02 04:09:30;;;;;;;28.73;15.73;;;;;;;9.18;65.47;94358.22;5008051;28;20117;-79
2024/03/02 04:11:56;;;;;;;27.42;15.50;;;;;;;9.16;65.80;94355.13;5009677;28;20369;-79
2024/03/02 04:14:24;;;;;;;26.55;15.32;;;;;;;9.20;65.37;94350.31;5009300;28;20104;-80
2024/03/02 04:16:49;;;;;;;25.63;14.75;;;;;;;9.25;65.38;94360.72;5008418;28;20060;-80
2024/03/02 04:19:14;;;;;;;27.50;16.25;;;;;;;9.26;65.32;94356.75;5009682;28;20025;-79
2024/03/02 04:21:40;;;;;;;34.03;17.42;;;;;;;9.30;65.32;94360.16;5009597;28;20479;-81
2024/03/02 04:24:05;;;;;;;29.02;16.45;;;;;;;9.32;65.33;94346.75;5009285;28;20029;-80
2024/03/02 04:26:30;;;;;;;27.98;15.90;;;;;;;9.31;65.45;94352.69;5009000;28;20108;-80
2024/03/02 04:28:56;;;;;;;30.45;15.98;;;;;;;9.25;65.59;94357.22;5009769;28;20111;-80
2024/03/02 04:31:21;;;;;;;29.05;16.25;;;;;;;9.33;65.60;94358.50;5008841;28;20109;-80
2024/03/02 04:33:47;;;;;;;33.50;18.00;;;;;;;9.29;65.82;94361.38;5009606;28;20025;-80
2024/03/02 04:36:12;;;;;;;35.45;17.65;;;;;;;9.24;66.17;94358.44;5009059;28;20022;-80
2024/03/02 04:38:38;;;;;;;33.42;18.15;;;;;;;9.29;66.21;94360.63;5009355;28;20026;-79
2024/03/02 04:41:05;;;;;;;29.25;17.60;;;;;;;9.18;66.34;94350.00;5009111;28;20105;-79
2024/03/02 04:43:31;;;;;;;28.17;17.40;;;;;;;9.22;66.32;94367.06;5008813;28;20026;-80
2024/03/02 04:45:58;;;;;;;31.52;16.95;;;;;;;9.15;66.57;94363.81;5009158;28;20026;-81
2024/03/02 04:48:23;;;;;;;34.03;18.27;;;;;;;9.17;66.74;94370.38;5008721;28;20505;-79
2024/03/02 04:50:49;;;;;;;34.13;19.30;;;;;;;9.15;66.92;94363.81;5009054;28;20033;-79
2024/03/02 04:53:14;;;;;;;32.03;19.50;;;;;;;9.13;67.33;94368.97;5008500;28;20022;-80
2024/03/02 04:58:06;;;;;;;37.58;19.75;;;;;;;9.10;67.47;94365.13;5008639;28;20096;-80
2024/03/02 05:00:31;;;;;;;34.70;20.90;;;;;;;9.09;67.63;94377.31;5008781;28;20026;-80
2024/03/02 05:02:57;;;;;;;33.33;18.95;;;;;;;9.08;67.82;94366.78;5008542;28;20127;-80
2024/03/02 05:05:22;;;;;;;34.58;18.23;;;;;;;9.05;67.94;94371.91;5008123;28;20022;-79
2024/03/02 05:07:47;;;;;;;37.50;20.10;;;;;;;9.07;68.00;94377.00;5009085;28;20083;-79
2024/03/02 05:10:14;;;;;;;32.95;19.45;;;;;;;9.07;68.02;94377.00;5007869;28;20462;-80
2024/03/02 05:15:07;;;;;;;33.50;20.15;;;;;;;9.02;67.73;94381.03;5007860;28;20181;-80
2024/03/02 05:17:33;;;;;;;30.13;17.35;;;;;;;9.09;67.76;94384.75;5008564;28;20548;-79
2024/03/02 05:19:58;;;;;;;39.75;19.40;;;;;;;9.08;67.93;94380.50;5007919;28;20092;-79
2024/03/02 05:22:24;;;;;;;31.92;18.80;;;;;;;9.19;67.66;94387.16;5008233;28;20026;-79
2024/03/02 05:24:49;;;;;;;32.38;19.15;;;;;;;9.12;68.18;94390.16;5008103;28;20523;-81
2024/03/02 05:27:15;;;;;;;33.55;19.50;;;;;;;9.15;68.06;94389.25;5007816;28;20109;-80
2024/03/02 05:29:40;;;;;;;36.15;19.40;;;;;;;9.07;68.54;94390.69;5008539;28;20057;-79
2024/03/02 05:32:06;;;;;;;31.38;19.30;;;;;;;9.04;68.69;94397.81;5007221;28;20028;-79
2024/03/02 05:34:32;;;;;;;33.25;19.85;;;;;;;9.12;68.40;94394.84;5008577;28;20103;-80
2024/03/02 05:36:58;;;;;;;41.15;20.35;;;;;;;9.10;68.49;94408.22;5007386;28;20472;-79
2024/03/02 05:39:23;;;;;;;41.15;21.90;;;;;;;9.13;68.46;94391.69;5007807;28;20029;-78
2024/03/02 05:41:49;;;;;;;31.65;18.50;;;;;;;9.10;68.51;94406.25;5007718;28;20435;-81
2024/03/02 05:44:15;;;;;;;34.95;19.25;;;;;;;9.12;68.66;94405.81;5007397;28;20026;-78
2024/03/02 05:46:41;;;;;;;32.03;18.15;;;;;;;9.13;68.89;94410.88;5008187;28;20018;-79
2024/03/02 05:49:07;;;;;;;34.30;19.58;;;;;;;9.13;68.82;94410.88;5007283;28;20041;-79
2024/03/02 05:51:33;;;;;;;34.08;19.92;;;;;;;9.11;68.90;94416.00;5008340;28;20034;-80
2024/03/02 05:53:58;;;;;;;33.70;19.88;;;;;;;9.08;69.05;94413.41;5007406;28;20029;-79
2024/03/02 05:56:24;;;;;;;32.72;20.45;;;;;;;9.06;68.87;94416.59;5007846;28;20037;-79
2024/03/02 06:01:33;;;;;;;30.95;18.88;;;;;;;9.08;69.27;94414.16;5007431;28;20096;-78
2024/03/02 06:03:58;;;;;;;34.72;19.77;;;;;;;9.09;69.13;94412.19;5007723;28;20034;-80
2024/03/02 06:06:24;;;;;;;35.20;19.75;;;;;;;9.15;68.95;94413.94;5007078;28;20049;-80
2024/03/02 06:08:50;;;;;;;38.28;23.45;;;;;;;9.14;68.90;94412.41;5008367;28;20030;-80
2024/03/02 06:11:15;;;;;;;40.38;24.50;;;;;;;9.12;69.16;94412.09;5015542;28;20452;-80
2024/03/02 06:13:41;;;;;;;41.60;25.42;;;;;;;9.09;69.55;94415.69;5016364;28;20053;-80
2024/03/02 06:16:06;;;;;;;40.35;22.30;;;;;;;9.12;69.61;94417.56;5009302;28;20029;-80
2024/03/02 06:18:32;;;;;;;38.42;22.02;;;;;;;9.18;69.53;94418.56;5008050;28;20116;-78
2024/03/02 06:20:57;;;;;;;42.33;22.23;;;;;;;9.12;69.44;94411.28;5006895;28;20028;-79
2024/03/02 06:23:23;;;;;;;38.50;22.58;;;;;;;9.07;69.72;94420.84;5007133;28;20029;-78
2024/03/02 06:25:48;;;;;;;36.42;21.23;;;;;;;9.08;69.87;94419.66;5007662;28;20417;-79
2024/03/02 06:28:15;;;;;;;36.53;19.50;;;;;;;9.10;69.53;94416.47;5006739;28;20030;-80
2024/03/02 06:30:42;;;;;;;34.22;19.02;;;;;;;9.10;69.56;94422.72;5007399;28;20026;-80
2024/03/02 06:33:07;;;;;;;32.63;17.38;;;;;;;9.04;69.80;94410.75;5006449;28;20034;-79
2024/03/02 06:35:33;;;;;;;35.97;18.70;;;;;;;9.08;69.76;94422.38;5006887;28;20028;-79
2024/03/02 06:37:58;;;;;;;35.47;18.85;;;;;;;9.11;69.61;94418.75;5006945;28;20030;-79
2024/03/02 06:40:23;;;;;;;34.75;19.10;;;;;;;9.09;69.35;94423.91;5006577;28;20022;-80
2024/03/02 06:42:49;;;;;;;33.88;19.08;;;;;;;9.17;69.30;94433.44;5007042;28;20026;-80
2024/03/02 06:45:14;;;;;;;32.88;18.25;;;;;;;9.07;69.29;94411.88;5006159;28;20190;-79
2024/03/02 06:47:39;;;;;;;33.10;17.42;;;;;;;9.19;69.20;94427.53;5007079;28;20029;-80
2024/03/02 06:50:06;;;;;;;31.15;17.45;;;;;;;9.18;69.25;94429.53;5006112;28;20182;-80
2024/03/02 06:52:32;;;;;;;31.10;17.58;;;;;;;9.17;69.18;94438.94;5006595;28;20040;-80
2024/03/02 06:54:57;;;;;;;33.97;17.90;;;;;;;9.14;69.30;94437.06;5006361;28;20026;-80
2024/03/02 06:57:24;;;;;;;35.78;17.55;;;;;;;9.25;68.92;94434.00;5006418;28;20033;-81
2024/03/02 06:59:54;;;;;;;33.90;17.67;;;;;;;9.23;69.15;94442.69;5007672;28;20383;-79
2024/03/02 07:02:20;;;;;;;35.08;19.40;;;;;;;9.18;69.45;94447.94;5006799;28;20056;-80
2024/03/02 07:04:46;;;;;;;32.40;18.48;;;;;;;9.23;69.45;94450.91;5007016;28;20400;-81
2024/03/02 07:07:11;;;;;;;33.28;17.83;;;;;;;9.11;69.30;94437.19;5005888;28;20030;-82
2024/03/02 07:09:36;;;;;;;28.45;15.95;;;;;;;9.18;69.46;94439.72;5007197;28;20034;-81
2024/03/02 07:12:02;;;;;;;35.55;17.60;;;;;;;9.16;69.68;94451.09;5006089;28;20042;-82
2024/03/02 07:14:55;;;;;;;29.08;16.80;;;;;;;9.17;69.53;94451.88;5006703;28;20512;-81
2024/03/02 07:17:13;;;;;;;34.25;16.60;;;;;;;9.21;69.33;94453.31;5006596;28;20033;-80
2024/03/02 07:19:39;;;;;;;30.52;17.50;;;;;;;9.18;69.44;94443.22;5005862;28;20025;-80
2024/03/02 07:22:10;;;;;;;35.88;18.60;;;;;;;9.22;69.41;94446.59;5006779;28;20061;-79
2024/03/02 07:24:42;;;;;;;35.58;17.63;;;;;;;9.27;69.15;94451.53;5005761;28;20018;-80
2024/03/02 07:27:12;;;;;;;35.03;18.42;;;;;;;9.26;68.70;94447.28;5005927;28;20543;-81
2024/03/02 07:29:37;;;;;;;32.28;17.88;;;;;;;9.23;68.95;94447.38;5006149;28;20030;-80
2024/03/02 07:32:03;;;;;;;31.95;18.05;;;;;;;9.29;68.91;94454.63;5004918;28;20673;-81
2024/03/02 07:34:29;;;;;;;35.30;18.30;;;;;;;9.30;69.14;94456.16;5006366;28;20398;-80
2024/03/02 07:36:54;;;;;;;37.38;19.95;;;;;;;9.32;69.38;94458.47;5005601;28;20034;-80
2024/03/02 07:39:20;;;;;;;33.38;18.25;;;;;;;9.30;69.50;94461.66;5005108;28;20064;-79
2024/03/02 07:41:46;;;;;;;36.83;20.23;;;;;;;9.34;69.14;94469.00;5005367;28;20033;-79
2024/03/02 07:44:14;;;;;;;39.72;19.65;;;;;;;9.37;68.75;94459.88;5005741;28;20021;-79
2024/03/02 07:46:41;;;;;;;38.03;19.00;;;;;;;9.43;68.84;94458.13;5005810;28;20026;-80
2024/03/02 07:49:06;;;;;;;34.10;18.38;;;;;;;9.41;68.55;94457.81;5005600;28;20030;-80
2024/03/02 07:51:32;;;;;;;30.65;16.55;;;;;;;9.38;68.97;94466.91;5006132;28;20393;-78
2024/03/02 07:54:23;;;;;;;34.05;18.08;;;;;;;9.34;68.75;94469.75;5005377;28;20034;-94
2024/03/02 07:56:49;;;;;;;35.40;17.95;;;;;;;9.43;68.39;94464.38;5209618;23;20061;-77
2024/03/02 07:59:14;;;;;;;33.67;17.25;;;;;;;9.28;68.54;94453.06;5024099;28;20536;-78
2024/03/02 08:01:41;;;;;;;32.70;16.77;;;;;;;9.41;68.91;94472.28;5042633;28;20029;-81
2024/03/02 08:04:06;;;;;;;30.65;16.77;;;;;;;9.43;68.55;94469.88;5039897;28;20044;-78
2024/03/02 08:06:33;;;;;;;31.67;16.30;;;;;;;9.41;68.67;94472.28;5027870;28;20030;-81
2024/03/02 08:09:00;;;;;;;33.35;16.63;;;;;;;9.50;68.11;94479.84;5008668;28;20041;-80
2024/03/02 08:11:27;;;;;;;31.83;17.08;;;;;;;9.45;68.16;94472.94;5027155;28;20026;-83
2024/03/02 08:13:54;;;;;;;29.88;15.02;;;;;;;9.42;68.02;94479.31;5027844;28;20052;-81
2024/03/02 08:16:36;;;;;;;26.23;14.95;;;;;;;9.37;68.42;94482.59;5025496;28;20033;-79
2024/03/02 08:19:03;;;;;;;31.23;15.10;;;;;;;9.45;68.25;94478.41;5009593;28;20021;-79
2024/03/02 08:21:32;;;;;;;30.23;15.48;;;;;;;9.45;68.07;94474.91;5023875;28;20072;-80
2024/03/02 08:24:03;;;;;;;29.95;14.73;;;;;;;9.38;68.29;94470.41;5041661;28;20427;-80
2024/03/02 08:26:31;;;;;;;28.52;15.35;;;;;;;9.39;68.63;94473.94;5026511;28;20095;-79
2024/03/02 08:29:01;;;;;;;30.70;15.43;;;;;;;9.52;68.28;94471.97;5008175;28;20269;-80
2024/03/02 08:31:28;;;;;;;33.03;16.13;;;;;;;9.52;68.24;94474.69;5027569;28;20033;-80
2024/03/02 08:33:53;;;;;;;26.73;15.93;;;;;;;9.40;68.68;94469.97;5024266;28;20025;-79
2024/03/02 08:36:20;;;;;;;31.65;16.38;;;;;;;9.41;68.84;94469.53;5009443;28;20116;-79
2024/03/02 08:38:46;;;;;;;30.17;15.73;;;;;;;9.48;68.75;94474.81;5025497;28;20030;-81
2024/03/02 08:41:13;;;;;;;29.50;16.08;;;;;;;9.56;68.73;94472.59;5008988;28;20056;-80
2024/03/02 08:43:40;;;;;;;36.67;18.90;;;;;;;9.55;68.58;94474.56;5026497;28;20133;-78
2024/03/02 08:46:07;;;;;;;33.33;17.05;;;;;;;9.61;68.33;94474.00;5028526;28;20029;-78
2024/03/02 08:48:33;;;;;;;38.22;17.77;;;;;;;9.61;68.79;94479.50;5031076;28;20041;-81
2024/03/02 08:50:58;;;;;;;33.05;18.42;;;;;;;9.67;68.92;94486.72;5029176;28;20025;-76
2024/03/02 08:53:24;;;;;;;33.15;17.65;;;;;;;9.74;68.67;94481.00;5030671;28;20045;-78
2024/03/02 08:55:49;;;;;;;35.35;18.08;;;;;;;9.75;68.71;94477.06;5028936;28;20017;-77
2024/03/02 08:58:15;;;;;;;29.10;16.88;;;;;;;9.75;68.30;94479.81;5030256;28;20418;-78
2024/03/02 09:00:40;;;;;;;33.13;18.15;;;;;;;9.81;68.11;94478.06;5028299;28;20029;-78
2024/03/02 09:03:06;;;;;;;31.75;18.77;;;;;;;9.87;67.91;94488.47;5044824;28;20034;-77
2024/03/02 09:05:32;;;;;;;32.10;17.98;;;;;;;9.92;67.94;94479.66;5029361;28;20533;-77
2024/03/02 09:07:57;;;;;;;32.28;18.67;;;;;;;9.92;67.84;94483.19;5029307;28;20459;-80
2024/03/02 09:10:22;;;;;;;33.92;18.60;;;;;;;10.06;67.32;94487.41;5030042;28;20744;-77
2024/03/02 09:12:48;;;;;;;32.85;17.38;;;;;;;10.06;67.75;94482.69;5028695;28;20028;-77
2024/03/02 09:15:13;;;;;;;31.50;18.15;;;;;;;10.08;67.23;94485.75;5029890;28;20030;-78
2024/03/02 09:17:38;;;;;;;29.55;17.38;;;;;;;10.15;67.15;94494.97;5028370;28;20048;-77
2024/03/02 09:20:05;;;;;;;30.30;16.75;;;;;;;10.14;66.90;94494.19;5030220;28;20104;-77
2024/03/02 09:22:30;;;;;;;26.98;16.77;;;;;;;10.12;66.96;94496.63;5029293;28;20411;-78
2024/03/02 09:24:56;;;;;;;30.52;17.88;;;;;;;10.19;66.94;94498.38;5029041;28;20049;-76
2024/03/02 09:27:22;;;;;;;31.38;17.40;;;;;;;10.24;66.51;94503.31;5029762;28;20372;-79
2024/03/02 09:29:47;;;;;;;33.03;18.67;;;;;;;10.28;66.58;94495.72;5028535;28;20026;-78
2024/03/02 09:32:14;;;;;;;33.88;18.92;;;;;;;10.25;66.93;94497.38;5030100;28;20032;-77
2024/03/02 09:34:39;;;;;;;33.85;18.15;;;;;;;10.35;66.57;94503.72;5028818;28;20037;-77
2024/03/02 09:37:05;;;;;;;31.23;17.67;;;;;;;10.43;66.51;94506.97;5029631;28;20549;-78
2024/03/02 09:39:30;;;;;;;31.05;17.42;;;;;;;10.46;66.34;94503.34;5028808;28;20021;-78
2024/03/02 09:41:56;;;;;;;28.88;17.08;;;;;;;10.42;66.32;94506.22;5029422;28;20500;-78
2024/03/02 09:44:22;;;;;;;31.98;18.02;;;;;;;10.46;66.00;94508.84;5029601;28;20025;-78
2024/03/02 09:46:51;;;;;;;31.20;17.58;;;;;;;10.44;66.23;94505.78;5028448;28;20460;-77
2024/03/02 09:49:16;;;;;;;33.05;18.23;;;;;;;10.45;66.16;94505.34;5029364;28;20407;-76
2024/03/02 09:51:47;;;;;;;31.98;17.50;;;;;;;10.48;66.06;94511.91;5010132;28;20032;-77
2024/03/02 09:54:12;;;;;;;30.02;17.50;;;;;;;10.51;65.92;94505.53;5029135;28;20556;-77
2024/03/02 09:56:38;;;;;;;30.33;17.02;;;;;;;10.47;65.47;94502.13;5027091;28;20137;-78
2024/03/02 09:59:04;;;;;;;31.55;17.77;;;;;;;10.45;65.73;94504.56;5029100;28;20025;-77
2024/03/02 10:01:30;;;;;;;35.45;18.45;;;;;;;10.42;65.82;94499.94;5028688;28;20037;-77
2024/03/02 10:04:00;;;;;;;32.75;17.88;;;;;;;10.48;65.75;94509.16;5027829;28;20383;-77
2024/03/02 10:06:26;;;;;;;33.60;19.45;;;;;;;10.53;65.64;94497.59;5029166;28;20026;-76
2024/03/02 10:08:52;;;;;;;34.53;19.55;;;;;;;10.52;65.71;94507.06;5027868;28;20033;-78
2024/03/02 10:11:32;;;;;;;34.50;19.23;;;;;;;10.51;65.83;94500.81;5029635;28;20067;-78
2024/03/02 10:14:11;;;;;;;35.88;19.27;;;;;;;10.55;66.26;94500.66;5028539;28;20032;-79
2024/03/02 10:16:41;;;;;;;34.08;20.40;;;;;;;10.53;66.22;94503.84;5028990;28;20030;-76
2024/03/02 10:19:20;;;;;;;42.85;21.98;;;;;;;10.54;66.03;94510.13;5028048;28;20032;-77
2024/03/02 10:21:53;;;;;;;37.53;21.15;;;;;;;10.55;66.24;94503.41;5028565;28;20084;-77
2024/03/02 10:24:19;;;;;;;38.08;19.88;;;;;;;10.53;66.59;94498.38;5030049;28;20025;-77
2024/03/02 10:26:45;;;;;;;36.90;20.45;;;;;;;10.59;66.48;94504.81;5027787;28;20030;-77
2024/03/02 10:29:11;;;;;;;33.53;18.58;;;;;;;10.64;66.49;94492.47;5028852;28;20377;-78
2024/03/02 10:31:38;;;;;;;32.85;18.20;;;;;;;10.66;66.64;94501.03;5027268;28;20158;-78
2024/03/02 10:34:03;;;;;;;34.30;18.98;;;;;;;10.62;66.94;94498.44;5027770;28;20484;-79
2024/03/02 10:36:29;;;;;;;37.60;20.10;;;;;;;10.63;66.95;94499.19;5029147;28;20020;-76
2024/03/02 10:38:56;;;;;;;41.35;22.75;;;;;;;10.64;66.99;94497.97;5027549;28;20025;-78
2024/03/02 10:41:26;;;;;;;39.67;20.20;;;;;;;10.60;67.36;94497.34;5028365;28;20492;-79
2024/03/02 10:43:58;;;;;;;36.92;19.77;;;;;;;10.61;67.19;94496.16;5026874;28;20044;-80
2024/03/02 10:46:30;;;;;;;32.45;19.30;;;;;;;10.59;67.11;94490.31;5028254;28;20412;-77
2024/03/02 10:48:58;;;;;;;38.90;19.17;;;;;;;10.60;67.15;94494.59;5027769;28;20045;-79
2024/03/02 10:51:25;;;;;;;36.75;20.30;;;;;;;10.56;67.08;94494.72;5025800;28;20017;-81
2024/03/02 10:53:52;;;;;;;37.30;20.08;;;;;;;10.43;67.53;94479.50;5027568;28;20029;-84
2024/03/02 10:56:31;;;;;;;37.53;19.10;;;;;;;10.44;67.61;94483.81;5026543;28;20076;-82
2024/03/02 10:59:18;;;;;;;32.22;18.17;;;;;;;10.50;67.51;94482.00;5012355;28;20052;-87
2024/03/02 11:01:45;;;;;;;34.97;18.30;;;;;;;10.50;67.63;94491.03;5027622;28;20033;-79
2024/03/02 11:04:12;;;;;;;32.13;18.33;;;;;;;10.50;67.34;94487.50;5025973;28;20025;-84
2024/03/02 11:06:41;;;;;;;32.42;18.50;;;;;;;10.54;67.35;94485.38;5026786;28;20112;-80
2024/03/02 11:09:12;;;;;;;36.88;19.02;;;;;;;10.52;67.16;94485.06;5025100;28;20035;-80
2024/03/02 11:11:41;;;;;;;30.40;18.13;;;;;;;10.61;67.04;94479.66;5028116;28;20489;-81
2024/03/02 11:14:10;;;;;;;31.73;17.90;;;;;;;10.68;66.87;94475.88;5026488;28;20079;-84
2024/03/02 11:16:36;;;;;;;31.88;18.33;;;;;;;10.73;66.72;94478.81;5042929;28;20033;-78
2024/03/02 11:19:06;;;;;;;29.88;17.02;;;;;;;10.79;66.44;94477.00;5041507;28;20408;-79
2024/03/02 11:21:34;;;;;;;32.53;18.50;;;;;;;10.86;66.01;94475.97;5023096;28;20036;-79
2024/03/02 11:23:59;;;;;;;32.70;17.73;;;;;;;10.93;65.71;94470.22;5041725;28;20036;-79
2024/03/02 11:26:24;;;;;;;27.08;16.30;;;;;;;10.98;65.52;94471.63;5023918;28;20026;-79
2024/03/02 11:28:50;;;;;;;29.80;18.05;;;;;;;11.03;65.78;94479.28;5027139;28;20021;-79